首页
METAR-TAF:

METAR-TAF

机场 :

阿纳帕, 俄罗斯

纬度: 44-54N, 经度: 037-19E, 海拔: 53米

当前天气观测

该预报发布于18分钟前的22:30 UTC
风速8节,风向东北
温度 22°C
湿度 78%
气压 1014 hPa
能见度10公里或以上
1500米以下无云,无积雨云

METAR: URKA 262230Z 04004MPS CAVOK 22/18 Q1014 R04/010070 NOSIG RMK QFE757/1009

时间: 01:48 (22:48 UTC)

预报

该预报发布于2小时和53分钟前的19:55 UTC
预报有效从26日的 21点(UTC)到 27日的 21点(UTC)
风速12节,风向北转东北,有时为21节阵风
能见度10公里或以上
1500米以下无云,无积雨云
短暂存在
从 26日的 21点(UTC)到 27日的 06点(UTC)
风速6节,风向东北,有时为16节阵风

TAF: URKA 261955Z 2621/2721 02006G11MPS CAVOK TEMPO 2621/2706 05003G08MPS

超过4000个机场的气象观测和天气预报(METAR&TAF报告)。

可查询的气象台以黄色和红色小点在地图上表示。

将鼠标移到小点上方,可查看气象台名称。

然后点击查看天气观测和预报。

如需切换地图:点击带黑十字的绿色按钮放大地图;点击带横线的绿色按钮缩小地图;或者点击绿色箭头查看邻近地区的地图。


METAR-TAF: